createdAt,value
2022-11-15T00:00:48.168Z,100566.91
2022-11-15T00:03:34.086Z,100560.72
2022-11-15T00:06:19.985Z,100556.84
2022-11-15T00:09:05.480Z,100554.72
2022-11-15T00:11:52.617Z,100557.91
2022-11-15T00:14:38.427Z,100549.53
2022-11-15T00:17:23.798Z,100554.47
2022-11-15T00:20:10.024Z,100546.97
2022-11-15T00:22:55.769Z,100549.09
2022-11-15T00:25:41.413Z,100551.66
2022-11-15T00:28:27.181Z,100546.94
2022-11-15T00:31:15.106Z,100549.94
2022-11-15T00:34:00.503Z,100543.56
2022-11-15T00:36:46.088Z,100530.91
2022-11-15T00:39:31.605Z,100541.19
2022-11-15T00:42:17.432Z,100539.25
2022-11-15T00:45:03.680Z,100546.34
2022-11-15T00:47:49.385Z,100535.63
2022-11-15T00:50:34.818Z,100538.09
2022-11-15T00:53:20.816Z,100540.53
2022-11-15T00:56:06.795Z,100534.19
2022-11-15T00:58:54.067Z,100532.28
2022-11-15T01:01:39.442Z,100543.84
2022-11-15T01:04:24.972Z,100533.03
2022-11-15T01:07:10.529Z,100517.53
2022-11-15T01:09:56.572Z,100503.78
2022-11-15T01:12:41.850Z,100508.81
2022-11-15T01:15:27.705Z,100509.19
2022-11-15T01:18:13.286Z,100520.69
2022-11-15T01:20:58.647Z,100512.28
2022-11-15T01:23:44.614Z,100516.56
2022-11-15T01:26:30.234Z,100510.09
2022-11-15T01:29:16.053Z,100499.91
2022-11-15T01:32:01.672Z,100501.47
2022-11-15T01:34:47.226Z,100484.53
2022-11-15T01:37:32.635Z,100490.75
2022-11-15T01:40:18.273Z,100477.53
2022-11-15T01:43:26.742Z,100492.34
2022-11-15T01:46:34.607Z,100483.31
2022-11-15T01:49:23.064Z,100484.19
2022-11-15T01:52:16.475Z,100476.97
2022-11-15T01:55:20.346Z,100477.72
2022-11-15T01:58:07.862Z,100471.38
2022-11-15T02:00:53.947Z,100457.69
2022-11-15T02:04:01.939Z,100459.53
2022-11-15T02:06:49.367Z,100460.28
2022-11-15T02:09:37.095Z,100437.91
2022-11-15T02:12:23.708Z,100451.97
2022-11-15T02:15:11.247Z,100438.41
2022-11-15T02:18:24.829Z,100435.34
2022-11-15T02:21:37.006Z,100434.16
2022-11-15T02:24:59.633Z,100431.88
2022-11-15T02:28:13.291Z,100423.06
2022-11-15T02:31:20.117Z,100430.66
2022-11-15T02:34:32.005Z,100430.31
2022-11-15T02:37:32.307Z,100428.50
2022-11-15T02:40:56.745Z,100428.25
2022-11-15T02:44:00.246Z,100416.03
2022-11-15T02:47:13.597Z,100408.31
2022-11-15T02:50:12.196Z,100413.47
2022-11-15T02:52:58.025Z,100412.63
2022-11-15T02:55:48.236Z,100415.06
2022-11-15T02:58:56.529Z,100421.03
2022-11-15T03:02:19.845Z,100421.91
2022-11-15T03:05:49.410Z,100410.19
2022-11-15T03:08:55.786Z,100410.91
2022-11-15T03:11:49.942Z,100416.28
2022-11-15T03:14:57.453Z,100420.69
2022-11-15T03:17:59.399Z,100425.09
2022-11-15T03:20:46.963Z,100420.44
2022-11-15T03:23:34.443Z,100414.94
2022-11-15T03:26:24.220Z,100419.13
2022-11-15T03:29:17.363Z,100412.88
2022-11-15T03:32:12.679Z,100404.81
2022-11-15T03:35:06.454Z,100406.38
2022-11-15T03:38:26.265Z,100413.00
2022-11-15T03:41:39.306Z,100412.63
2022-11-15T03:44:46.836Z,100413.25
2022-11-15T03:47:38.941Z,100413.72
2022-11-15T03:50:25.935Z,100408.34
2022-11-15T03:53:11.963Z,100410.91
2022-11-15T03:55:57.626Z,100418.38
2022-11-15T03:58:43.366Z,100419.72
2022-11-15T04:01:29.069Z,100416.75
2022-11-15T04:04:14.988Z,100420.31
2022-11-15T04:07:00.795Z,100408.81
2022-11-15T04:10:04.321Z,100417.25
2022-11-15T04:12:49.661Z,100418.84
2022-11-15T04:15:35.593Z,100417.72
2022-11-15T04:18:21.322Z,100414.06
2022-11-15T04:21:25.760Z,100412.94
2022-11-15T04:24:14.640Z,100404.03
2022-11-15T04:27:01.016Z,100418.19
2022-11-15T04:29:46.790Z,100416.25
2022-11-15T04:32:32.244Z,100415.03
2022-11-15T04:35:17.723Z,100409.38
2022-11-15T04:38:07.940Z,100414.38
2022-11-15T04:40:53.464Z,100410.34
2022-11-15T04:43:38.992Z,100415.34
2022-11-15T04:46:25.158Z,100409.72
2022-11-15T04:49:11.122Z,100401.50
2022-11-15T04:51:56.845Z,100409.94
2022-11-15T04:54:43.115Z,100406.97
2022-11-15T04:57:28.789Z,100405.88
2022-11-15T05:00:17.779Z,100413.56
2022-11-15T05:03:22.534Z,100407.78
2022-11-15T05:06:08.612Z,100398.47
2022-11-15T05:08:54.652Z,100409.72
2022-11-15T05:11:40.747Z,100403.34
2022-11-15T05:14:26.563Z,100412.91
2022-11-15T05:17:12.354Z,100400.25
2022-11-15T05:19:58.150Z,100402.59
2022-11-15T05:22:43.614Z,100402.22
2022-11-15T05:25:28.865Z,100403.19
2022-11-15T05:28:14.333Z,100414.84
2022-11-15T05:31:10.229Z,100409.72
2022-11-15T05:33:57.449Z,100404.56
2022-11-15T05:36:46.603Z,100421.47
2022-11-15T05:39:32.294Z,100397.34
2022-11-15T05:42:18.081Z,100405.06
2022-11-15T05:45:07.492Z,100398.53
2022-11-15T05:47:55.503Z,100400.56
2022-11-15T05:50:44.941Z,100403.88
2022-11-15T05:53:31.928Z,100408.75
2022-11-15T05:56:17.753Z,100396.13
2022-11-15T05:59:04.152Z,100396.84
2022-11-15T06:01:50.669Z,100406.66
2022-11-15T06:04:36.783Z,100406.91
2022-11-15T06:07:22.768Z,100407.50
2022-11-15T06:10:09.386Z,100399.53
2022-11-15T06:13:02.830Z,100404.78
2022-11-15T06:15:49.231Z,100408.59
2022-11-15T06:18:35.768Z,100405.19
2022-11-15T06:21:21.414Z,100412.03
2022-11-15T06:24:07.488Z,100414.72
2022-11-15T06:26:53.313Z,100423.56
2022-11-15T06:29:39.210Z,100419.00
2022-11-15T06:32:24.449Z,100418.84
2022-11-15T06:35:09.995Z,100413.22
2022-11-15T06:37:55.601Z,100423.84
2022-11-15T06:40:41.317Z,100419.44
2022-11-15T06:43:27.183Z,100422.28
2022-11-15T06:46:12.446Z,100420.72
2022-11-15T06:48:57.879Z,100420.84
2022-11-15T06:51:43.794Z,100420.97
2022-11-15T06:54:29.511Z,100419.25
2022-11-15T06:57:15.123Z,100420.13
2022-11-15T07:00:00.426Z,100420.97
2022-11-15T07:02:46.493Z,100416.44
2022-11-15T07:05:32.237Z,100422.81
2022-11-15T07:08:18.141Z,100424.53
2022-11-15T07:11:07.677Z,100426.34
2022-11-15T07:13:53.414Z,100413.75
2022-11-15T07:16:38.919Z,100417.19
2022-11-15T07:19:24.244Z,100418.75
2022-11-15T07:22:09.576Z,100415.06
2022-11-15T07:24:55.111Z,100433.56
2022-11-15T07:27:41.064Z,100419.78
2022-11-15T07:30:28.476Z,100430.31
2022-11-15T07:33:13.927Z,100417.97
2022-11-15T07:36:07.368Z,100418.41
2022-11-15T07:38:52.964Z,100432.75
2022-11-15T07:41:39.460Z,100426.94
2022-11-15T07:44:24.858Z,100433.81
2022-11-15T07:47:10.364Z,100435.22
2022-11-15T07:49:56.289Z,100424.94
2022-11-15T07:52:41.718Z,100437.72
2022-11-15T07:55:30.523Z,100423.97
2022-11-15T07:58:16.153Z,100423.44
2022-11-15T08:01:10.922Z,100432.84
2022-11-15T08:03:56.706Z,100432.59
2022-11-15T08:06:42.131Z,100427.50
2022-11-15T08:09:27.829Z,100427.09
2022-11-15T08:12:13.670Z,100434.66
2022-11-15T08:14:59.210Z,100427.00
2022-11-15T08:17:44.739Z,100416.78
2022-11-15T08:20:31.687Z,100423.66
2022-11-15T08:23:17.381Z,100430.38
2022-11-15T08:26:04.664Z,100421.16
2022-11-15T08:28:50.396Z,100430.81
2022-11-15T08:31:37.456Z,100430.41
2022-11-15T08:34:24.026Z,100423.47
2022-11-15T08:37:09.873Z,100414.22
2022-11-15T08:39:58.234Z,100424.34
2022-11-15T08:42:43.811Z,100417.25
2022-11-15T08:45:30.078Z,100411.31
2022-11-15T08:48:15.935Z,100423.25
2022-11-15T08:51:01.518Z,100415.56
2022-11-15T08:53:47.204Z,100418.56
2022-11-15T08:56:33.277Z,100414.44
2022-11-15T08:59:18.808Z,100405.47
2022-11-15T09:02:05.833Z,100405.19
2022-11-15T09:04:51.332Z,100410.72
2022-11-15T09:07:36.815Z,100409.84
2022-11-15T09:10:23.610Z,100408.59
2022-11-15T09:13:09.642Z,100411.31
2022-11-15T09:16:00.206Z,100416.72
2022-11-15T09:18:45.717Z,100418.69
2022-11-15T09:21:32.757Z,100407.84
2022-11-15T09:24:18.562Z,100415.56
2022-11-15T09:27:04.419Z,100412.56
2022-11-15T09:29:50.187Z,100417.41
2022-11-15T09:32:39.269Z,100413.25
2022-11-15T09:35:25.237Z,100412.22
2022-11-15T09:38:10.875Z,100414.06
2022-11-15T09:41:19.146Z,100412.00
2022-11-15T09:44:39.720Z,100413.13
2022-11-15T09:48:22.194Z,100416.31
2022-11-15T09:51:16.736Z,100412.38
2022-11-15T09:57:50.533Z,100409.97
2022-11-15T10:00:45.345Z,100407.91
2022-11-15T10:03:18.267Z,100412.03
2022-11-15T10:05:48.549Z,100405.88
2022-11-15T10:08:46.197Z,100410.84
2022-11-15T10:11:38.316Z,100398.38
2022-11-15T10:14:28.398Z,100388.94
2022-11-15T10:17:04.535Z,100389.16
2022-11-15T10:20:02.532Z,100380.06
2022-11-15T10:22:35.258Z,100387.59
2022-11-15T10:25:15.022Z,100382.78
2022-11-15T10:27:43.351Z,100365.06
2022-11-15T10:30:17.909Z,100367.47
2022-11-15T10:32:47.999Z,100366.06
2022-11-15T10:35:26.270Z,100365.47
2022-11-15T10:38:06.050Z,100365.66
2022-11-15T10:40:33.452Z,100365.69
2022-11-15T10:43:19.887Z,100352.69
2022-11-15T10:45:47.739Z,100346.47
2022-11-15T10:48:14.553Z,100341.44
2022-11-15T10:50:47.742Z,100335.38
2022-11-15T10:53:29.712Z,100325.00
2022-11-15T10:56:02.112Z,100336.38
2022-11-15T10:58:43.013Z,100322.59
2022-11-15T11:01:20.313Z,100317.47
2022-11-15T11:04:08.056Z,100318.66
2022-11-15T11:06:59.856Z,100314.91
2022-11-15T11:09:38.945Z,100318.63
2022-11-15T11:12:11.837Z,100311.84
2022-11-15T11:14:40.535Z,100321.34
2022-11-15T11:17:49.878Z,100309.66
2022-11-15T11:20:42.166Z,100308.13
2022-11-15T11:23:34.306Z,100307.44
2022-11-15T11:26:43.164Z,100304.91
2022-11-15T11:29:55.311Z,100306.44
2022-11-15T11:32:58.742Z,100297.88
2022-11-15T11:35:48.059Z,100298.72
2022-11-15T11:38:45.733Z,100288.50
2022-11-15T11:41:58.194Z,100300.06
2022-11-15T11:44:36.923Z,100293.31
2022-11-15T11:47:22.640Z,100288.69
2022-11-15T11:49:56.942Z,100287.31
2022-11-15T11:53:09.175Z,100279.09
2022-11-15T11:55:49.181Z,100284.44
2022-11-15T11:58:35.201Z,100285.16
2022-11-15T12:01:30.121Z,100278.63
2022-11-15T12:04:22.459Z,100274.72
2022-11-15T12:07:07.151Z,100262.69
2022-11-15T12:10:05.828Z,100271.34
2022-11-15T12:12:45.482Z,100268.78
2022-11-15T12:15:28.962Z,100253.22
2022-11-15T12:17:57.990Z,100253.09
2022-11-15T12:20:38.879Z,100253.22
2022-11-15T12:23:17.934Z,100240.34
2022-11-15T12:26:09.704Z,100242.31
2022-11-15T12:29:07.449Z,100238.13
2022-11-15T12:31:35.424Z,100234.44
2022-11-15T12:34:23.029Z,100220.06
2022-11-15T12:36:52.288Z,100223.28
2022-11-15T12:39:20.548Z,100216.38
2022-11-15T12:41:57.156Z,100222.03
2022-11-15T12:44:33.246Z,100214.41
2022-11-15T12:47:25.527Z,100212.53
2022-11-15T12:49:52.917Z,100214.81
2022-11-15T12:52:20.641Z,100215.16
2022-11-15T12:55:00.110Z,100211.75
2022-11-15T12:57:40.195Z,100214.16
2022-11-15T13:00:29.835Z,100214.53
2022-11-15T13:03:24.361Z,100207.91
2022-11-15T13:06:00.401Z,100211.97
2022-11-15T13:08:53.861Z,100211.00
2022-11-15T13:11:45.551Z,100215.34
2022-11-15T13:14:54.968Z,100205.28
2022-11-15T13:17:40.838Z,100196.81
2022-11-15T13:20:07.697Z,100197.72
2022-11-15T13:23:00.128Z,100201.38
2022-11-15T13:25:37.894Z,100189.97
2022-11-15T13:28:15.225Z,100190.06
2022-11-15T13:30:58.014Z,100176.75
2022-11-15T13:33:36.488Z,100187.31
2022-11-15T13:36:20.697Z,100180.44
2022-11-15T13:38:57.777Z,100176.97
2022-11-15T13:41:31.593Z,100185.19
2022-11-15T13:44:00.928Z,100171.47
2022-11-15T13:46:33.949Z,100170.50
2022-11-15T13:49:09.451Z,100168.84
2022-11-15T13:51:51.528Z,100178.31
2022-11-15T13:54:34.814Z,100176.81
2022-11-15T13:57:13.953Z,100167.03
2022-11-15T13:59:57.696Z,100169.41
2022-11-15T14:02:33.450Z,100161.78
2022-11-15T14:05:18.707Z,100164.03
2022-11-15T14:08:00.527Z,100152.44
2022-11-15T14:10:37.157Z,100155.25
2022-11-15T14:13:10.679Z,100159.75
2022-11-15T14:15:40.225Z,100157.34
2022-11-15T14:18:07.676Z,100149.50
2022-11-15T14:20:39.917Z,100159.09
2022-11-15T14:23:28.627Z,100161.31
2022-11-15T14:25:59.430Z,100157.38
2022-11-15T14:28:26.329Z,100153.50
2022-11-15T14:30:56.083Z,100155.78
2022-11-15T14:33:33.659Z,100159.97
2022-11-15T14:36:21.784Z,100148.31
2022-11-15T14:38:49.385Z,100140.56
2022-11-15T14:41:23.030Z,100140.81
2022-11-15T14:43:51.828Z,100125.88
2022-11-15T14:46:19.233Z,100144.25
2022-11-15T14:48:46.689Z,100124.19
2022-11-15T14:51:17.668Z,100137.94
2022-11-15T14:53:45.905Z,100126.06
2022-11-15T14:56:13.394Z,100135.72
2022-11-15T14:58:40.838Z,100139.31
2022-11-15T15:01:20.923Z,100134.56
2022-11-15T15:03:48.183Z,100130.47
2022-11-15T15:06:18.035Z,100139.31
2022-11-15T15:08:46.937Z,100122.31
2022-11-15T15:11:27.508Z,100124.19
2022-11-15T15:13:57.957Z,100112.38
2022-11-15T15:16:25.915Z,100106.44
2022-11-15T15:18:53.199Z,100106.41
2022-11-15T15:21:33.543Z,100114.72
2022-11-15T15:24:03.181Z,100101.94
2022-11-15T15:26:30.341Z,100092.06
2022-11-15T15:28:57.334Z,100089.47
2022-11-15T15:31:24.262Z,100092.16
2022-11-15T15:33:51.201Z,100088.38
2022-11-15T15:36:21.286Z,100100.28
2022-11-15T15:38:48.278Z,100088.81
2022-11-15T15:41:17.087Z,100100.78
2022-11-15T15:43:44.973Z,100093.78
2022-11-15T15:46:20.597Z,100086.59
2022-11-15T15:48:48.253Z,100089.09
2022-11-15T15:51:20.227Z,100081.59
2022-11-15T15:53:49.105Z,100080.59
2022-11-15T15:56:16.046Z,100074.63
2022-11-15T15:58:43.438Z,100079.34
2022-11-15T16:01:10.479Z,100073.88
2022-11-15T16:03:37.526Z,100077.44
2022-11-15T16:06:06.072Z,100073.03
2022-11-15T16:08:47.744Z,100074.88
2022-11-15T16:11:20.223Z,100069.88
2022-11-15T16:13:47.218Z,100069.38
2022-11-15T16:16:15.415Z,100061.56
2022-11-15T16:18:42.425Z,100065.97
2022-11-15T16:21:10.091Z,100061.25
2022-11-15T16:23:37.020Z,100060.09
2022-11-15T16:26:21.295Z,100053.13
2022-11-15T16:28:48.577Z,100044.47
2022-11-15T16:31:17.820Z,100051.44
2022-11-15T16:33:45.320Z,100046.16
2022-11-15T16:36:30.448Z,100041.91
2022-11-15T16:38:59.187Z,100043.78
2022-11-15T16:41:26.248Z,100032.25
2022-11-15T16:43:53.257Z,100028.84
2022-11-15T16:46:25.879Z,100027.31
2022-11-15T16:48:54.253Z,100024.91
2022-11-15T16:51:21.722Z,100017.41
2022-11-15T16:53:49.986Z,100012.63
2022-11-15T16:56:30.513Z,100013.81
2022-11-15T16:58:59.651Z,100014.59
2022-11-15T17:01:30.561Z,100015.91
2022-11-15T17:03:58.563Z,100011.81
2022-11-15T17:06:26.879Z,100008.56
2022-11-15T17:08:54.786Z,100002.63
2022-11-15T17:11:22.795Z,99999.53
2022-11-15T17:13:49.918Z,100000.84
2022-11-15T17:16:18.932Z,100004.41
2022-11-15T17:18:51.148Z,99999.28
2022-11-15T17:21:21.946Z,99989.22
2022-11-15T17:23:49.263Z,99992.09
2022-11-15T17:26:36.172Z,99984.13
2022-11-15T17:29:07.689Z,99987.69
2022-11-15T17:31:38.506Z,99976.69
2022-11-15T17:34:06.938Z,99981.97
2022-11-15T17:36:34.865Z,99985.91
2022-11-15T17:39:02.483Z,99985.38
2022-11-15T17:41:30.241Z,99984.88
2022-11-15T17:43:59.718Z,99983.78
2022-11-15T17:46:28.367Z,99993.72
2022-11-15T17:48:57.121Z,99984.34
2022-11-15T17:51:24.575Z,99990.78
2022-11-15T17:53:52.917Z,99979.41
2022-11-15T17:56:22.936Z,99979.88
2022-11-15T17:58:53.008Z,99976.94
2022-11-15T18:01:25.095Z,99975.00
2022-11-15T18:03:53.284Z,99984.03
2022-11-15T18:06:22.305Z,99983.94
2022-11-15T18:08:51.538Z,99984.13
2022-11-15T18:11:22.147Z,99983.03
2022-11-15T18:13:53.106Z,99983.31
2022-11-15T18:16:25.279Z,99984.47
2022-11-15T18:18:53.650Z,99978.00
2022-11-15T18:21:25.372Z,99979.69
2022-11-15T18:24:01.416Z,99975.75
2022-11-15T18:26:30.532Z,99979.16
2022-11-15T18:29:04.493Z,99976.75
2022-11-15T18:31:32.258Z,99962.84
2022-11-15T18:34:00.533Z,99968.09
2022-11-15T18:36:30.130Z,99968.38
2022-11-15T18:39:02.484Z,99962.13
2022-11-15T18:41:30.807Z,99962.84
2022-11-15T18:44:00.818Z,99960.16
2022-11-15T18:46:31.558Z,99962.97
2022-11-15T18:49:00.950Z,99956.91
2022-11-15T18:51:31.263Z,99957.56
2022-11-15T18:54:01.862Z,99955.56
2022-11-15T18:56:31.475Z,99942.34
2022-11-15T18:59:00.865Z,99939.66
2022-11-15T19:01:33.821Z,99940.34
2022-11-15T19:04:10.287Z,99936.81
2022-11-15T19:06:40.771Z,99936.81
2022-11-15T19:09:09.501Z,99936.81
2022-11-15T19:11:39.951Z,99935.66
2022-11-15T19:14:12.600Z,99929.09
2022-11-15T19:16:44.553Z,99934.50
2022-11-15T19:19:17.890Z,99941.59
2022-11-15T19:21:45.347Z,99934.19
2022-11-15T19:24:12.347Z,99927.94
2022-11-15T19:26:40.124Z,99932.50
2022-11-15T19:29:13.774Z,99920.69
2022-11-15T19:31:41.706Z,99917.13
2022-11-15T19:34:08.792Z,99923.41
2022-11-15T19:36:39.692Z,99919.69
2022-11-15T19:39:11.717Z,99922.41
2022-11-15T19:41:42.281Z,99915.44
2022-11-15T19:44:10.530Z,99912.59
2022-11-15T19:46:38.314Z,99910.03
2022-11-15T19:49:08.052Z,99913.59
2022-11-15T19:51:34.982Z,99916.28
2022-11-15T19:54:06.540Z,99917.13
2022-11-15T19:56:35.001Z,99906.00
2022-11-15T19:59:03.405Z,99911.13
2022-11-15T20:01:33.877Z,99903.16
2022-11-15T20:04:00.905Z,99901.78
2022-11-15T20:06:36.066Z,99904.47
2022-11-15T20:09:03.828Z,99893.97
2022-11-15T20:11:30.787Z,99888.88
2022-11-15T20:14:01.770Z,99895.97
2022-11-15T20:16:29.290Z,99890.00
2022-11-15T20:18:56.391Z,99885.78
2022-11-15T20:21:23.488Z,99887.78
2022-11-15T20:23:51.687Z,99885.78
2022-11-15T20:26:20.060Z,99883.22
2022-11-15T20:28:48.045Z,99882.38
2022-11-15T20:31:15.643Z,99880.53
2022-11-15T20:33:42.623Z,99885.06
2022-11-15T20:36:15.890Z,99884.41
2022-11-15T20:38:44.551Z,99880.13
2022-11-15T20:41:12.772Z,99882.69
2022-11-15T20:43:43.217Z,99879.00
2022-11-15T20:46:13.279Z,99879.66
2022-11-15T20:48:40.791Z,99884.78
2022-11-15T20:51:14.403Z,99877.38
2022-11-15T20:53:46.209Z,99870.97
2022-11-15T20:56:21.650Z,99874.50
2022-11-15T20:58:53.450Z,99871.97
2022-11-15T21:01:24.323Z,99864.31
2022-11-15T21:03:53.883Z,99862.63
2022-11-15T21:06:22.770Z,99862.06
2022-11-15T21:09:10.341Z,99859.53
2022-11-15T21:11:56.813Z,99865.06
2022-11-15T21:14:23.972Z,99856.97
2022-11-15T21:16:51.083Z,99852.72
2022-11-15T21:19:19.742Z,99845.63
2022-11-15T21:21:49.714Z,99846.31
2022-11-15T21:24:16.972Z,99844.78
2022-11-15T21:26:44.034Z,99842.78
2022-11-15T21:29:10.978Z,99843.63
2022-11-15T21:31:37.970Z,99838.38
2022-11-15T21:34:07.265Z,99840.75
2022-11-15T21:36:34.409Z,99833.81
2022-11-15T21:39:01.320Z,99839.91
2022-11-15T21:41:28.396Z,99822.72
2022-11-15T21:44:00.206Z,99824.25
2022-11-15T21:46:29.258Z,99825.78
2022-11-15T21:48:57.349Z,99815.28
2022-11-15T21:51:26.421Z,99815.16
2022-11-15T21:53:57.515Z,99807.19
2022-11-15T21:56:26.558Z,99799.94
2022-11-15T21:58:55.112Z,99806.03
2022-11-15T22:01:46.475Z,99811.13
2022-11-15T22:04:14.629Z,99796.78
2022-11-15T22:06:41.779Z,99800.84
2022-11-15T22:09:08.802Z,99807.25
2022-11-15T22:11:36.040Z,99798.00
2022-11-15T22:14:03.438Z,99799.72
2022-11-15T22:16:31.098Z,99801.38
2022-11-15T22:18:58.451Z,99801.25
2022-11-15T22:21:25.417Z,99801.06
2022-11-15T22:23:52.465Z,99797.38
2022-11-15T22:26:23.749Z,99791.13
2022-11-15T22:28:51.636Z,99788.44
2022-11-15T22:31:19.177Z,99786.56
2022-11-15T22:33:47.055Z,99775.06
2022-11-15T22:36:14.138Z,99780.63
2022-11-15T22:38:41.392Z,99773.53
2022-11-15T22:41:09.107Z,99767.13
2022-11-15T22:43:36.298Z,99754.25
2022-11-15T22:46:04.890Z,99765.88
2022-11-15T22:48:37.988Z,99762.88
2022-11-15T22:51:06.607Z,99763.00
2022-11-15T22:53:33.948Z,99763.88
2022-11-15T22:56:05.083Z,99760.19
2022-11-15T22:58:33.795Z,99755.44
2022-11-15T23:01:04.003Z,99755.59
2022-11-15T23:03:32.263Z,99755.06
2022-11-15T23:06:07.373Z,99749.66
2022-11-15T23:08:35.288Z,99756.78
2022-11-15T23:11:23.269Z,99755.91
2022-11-15T23:13:52.189Z,99755.25
2022-11-15T23:16:23.426Z,99753.22
2022-11-15T23:19:03.209Z,99748.97
2022-11-15T23:21:53.021Z,99751.66
2022-11-15T23:24:21.903Z,99748.66
2022-11-15T23:26:52.121Z,99730.75
2022-11-15T23:29:21.735Z,99734.78
2022-11-15T23:32:08.002Z,99746.75
2022-11-15T23:34:44.372Z,99735.41
2022-11-15T23:37:14.816Z,99736.72
2022-11-15T23:39:41.833Z,99734.88
2022-11-15T23:42:09.579Z,99726.94
2022-11-15T23:44:36.968Z,99728.63
2022-11-15T23:47:04.141Z,99727.47
2022-11-15T23:49:31.272Z,99722.22
2022-11-15T23:51:58.212Z,99731.84
2022-11-15T23:54:25.165Z,99732.16
2022-11-15T23:56:52.152Z,99731.00
2022-11-15T23:59:19.265Z,99735.56
